Steptoe Valley North, Nevada Weather observations

Data are for 10 minute period ending at time listed.
 Day   Time   Solar   Ave.   Ave.  Ave.  Vector  Max.   Baro.   Total    
  of    of     Rad.   Air    Rel.  Wind   Wind   Wind  Press.  Precip.   
Year   Day            Temp.  Hum.  Speed  Dir.   Gust                    
2016   (PST)  Kw/m2    F      %     mph   deg.    mph    mb.     in.     
-------------------------------------------------------------------------
 336   14:00   0.51   35.1    42   10.9   339    19.1   818.9    0.00 
 336   14:10   0.40   34.3    44   11.9   341    17.4   819.0    0.00 
 336   14:20   0.28   33.3    42   10.9   344    14.1   819.1    0.00 
 336   14:30   0.14   32.4    41   10.7   345    14.7   819.1    0.00 
 336   14:40   0.16   32.5    42    9.9   333    17.9   819.3    0.00 
 336   14:50   0.14   32.4    45   11.0   333    15.2   819.3    0.00 
 336   15:00   0.10   31.6    46   10.4   334    14.9   819.4    0.00 
 336   15:10   0.06   30.8    47    8.6   336    12.4   819.5    0.00 
 336   15:20   0.04   30.0    48    8.4   336    11.5   819.5    0.00 
 336   15:30   0.04   29.9    48    8.9   333    13.2   819.5    0.00 
 336   15:40   0.02   29.8    49    9.4   330    13.2   819.6    0.00 
 336   15:50   0.01   29.4    50    9.9   330    14.2   819.6    0.00 
 336   16:00   0.01   28.9    51   10.3   330    14.6   819.7    0.00 
 336   16:10   0.01   28.4    52    9.7   330    13.8   819.7    0.00 
 336   16:20   0.00   28.2    52   11.5   323    15.2   819.8    0.00 
 336   16:30   0.00   27.9    52   10.7   322    15.3   819.9    0.00 
 336   16:40   0.00   27.8    52   10.1   330    15.3   820.1    0.00 
 336   16:50   0.00   27.5    53    7.7   340    14.2   820.2    0.00 
 336   17:00   0.00   27.3    53    7.0   345     9.3   820.3    0.00 
 336   17:10   0.00   27.2    54    6.8   349     9.9   820.3    0.00 
 336   17:20   0.00   27.0    54    8.0   341    11.3   820.4    0.00 
 336   17:30   0.00   27.1    53    9.0   338    12.6   820.5    0.00 
 336   17:40   0.00   26.9    54    9.0   334    12.3   820.5    0.00 
 336   17:50   0.00   26.6    55    7.6   336    10.3   820.5    0.00 
 336   18:00   0.00   26.3    57    7.3   333    10.1   820.7    0.00 
 336   18:10   0.00   26.3    57    7.8   332    10.0   820.8    0.00 
 336   18:20   0.00   26.1    58    6.6   337     8.8   820.8    0.00 
 336   18:30   0.00   26.0    58    5.8   343     8.1   820.9    0.00 
 336   18:40   0.00   25.9    59    4.7   341     6.2   821.0    0.00 
 336   18:50   0.00   25.6    60    3.8   338     5.6   821.1    0.00 
 336   19:00   0.00   25.4    61    3.1   348     3.9   821.1    0.00 
 336   19:10   0.00   25.2    62    2.8   345     3.5   821.2    0.00 
 336   19:20   0.00   24.8    63    3.0   338     3.8   821.2    0.00 
 336   19:30   0.00   24.6    63    3.1   332     3.9   821.4    0.00 
 336   19:40   0.00   24.5    63    2.8   336     4.2   821.4    0.00 
 336   19:50   0.00   24.4    64    2.8   337     3.1   821.5    0.00 
 336   20:00   0.00   24.3    64    2.6   337     3.1   821.5    0.00 
 336   20:10   0.00   24.4    63    3.8   325     9.3   821.6    0.00 
 336   20:20   0.00   25.6    56    7.4   330    13.1   821.7    0.00 
 336   20:30   0.00   25.7    59    8.3   329    12.3   821.7    0.00 
 336   20:40   0.00   25.5    63   10.4   325    14.4   821.8    0.00 
 336   20:50   0.00   25.3    64    8.5   323    12.2   821.8    0.00 
 336   21:00   0.00   25.2    64    8.8   322    12.4   821.9    0.00 
 336   21:10   0.00   25.1    64    6.9   314    10.2   821.9    0.00 
 336   21:20   0.00   25.0    65    5.7   305     8.2   822.0    0.00 
 336   21:30   0.00   24.7    65    5.0   308     8.0   822.0    0.00 
 336   21:40   0.00   24.7    64    6.3   322     9.7   822.1    0.00 
 336   21:50   0.00   24.8    63    8.7   321    12.1   822.1    0.00 
 336   22:00   0.00   24.7    64    8.5   318    12.1   822.2    0.00 
 336   22:10   0.00   24.5    65    7.5   319    10.4   822.2    0.00 
 336   22:20   0.00   24.5    66    7.3   323    10.3   822.3    0.00 
 336   22:30   0.00   24.3    66    6.2   318     7.9   822.4    0.00 
 336   22:40   0.00   24.1    67    5.5   312     7.6   822.4    0.00 
 336   22:50   0.00   23.9    67    6.0   298     7.9   822.3    0.00 
 336   23:00   0.00   23.7    68    4.8   312     7.9   822.4    0.00 
 336   23:10   0.00   23.3    69    3.8   319     5.3   822.5    0.00 
 336   23:20   0.00   23.0    70    3.1   310     4.4   822.5    0.00 
 336   23:30   0.00   22.7    71    2.4   307     3.7   822.4    0.00 
 336   23:40   0.00   22.8    71    1.9   313     3.4   822.4    0.00 
 336   23:50   0.00   22.8    70    2.4   310     4.7   822.3    0.00 
 337    0:00   0.00   22.8    69    5.4   310     9.0   822.2    0.00 
 337    0:10   0.00   22.9    68    5.7   315     7.8   822.2    0.00 
 337    0:20   0.00   22.6    69    4.4   321     6.0   822.3    0.00 
 337    0:30   0.00   22.1    71    3.1    43     4.6   822.3    0.00 
 337    0:40   0.00   21.5    73    1.9   130     3.7   822.4    0.00 
 337    0:50   0.00   22.3    73    3.7    72     8.0   822.5    0.00 
 337    1:00   0.00   22.8    70    4.6    40     6.6   822.6    0.00 
 337    1:10   0.00   22.9    69    4.3   354     6.6   822.6    0.00 
 337    1:20   0.00   22.7    70    4.6   352     5.8   822.7    0.00 
 337    1:30   0.00   22.4    72    4.7   358     6.4   822.8    0.00 
 337    1:40   0.00   22.5    71    4.7   353     6.2   822.8    0.00 
 337    1:50   0.00   22.3    73    3.1   346     4.5   822.8    0.00 
 337    2:00   0.00   22.1    72    3.8   343     4.8   822.8    0.00 
 337    2:10   0.00   22.0    72    3.7   354     5.4   822.7    0.00 
 337    2:20   0.00   21.7    73    4.2   357     5.0   822.7    0.00 
 337    2:30   0.00   21.4    74    3.5     8     4.2   822.7    0.00 
 337    2:40   0.00   21.5    74    3.3    34     5.0   822.7    0.00 
 337    2:50   0.00   21.1    74    2.9    10     4.6   822.6    0.00 
 337    3:00   0.00   20.3    76    3.6   341     4.5   822.5    0.00 
 337    3:10   0.00   19.6    78    3.6   335     4.9   822.4    0.00 
 337    3:20   0.00   19.6    79    4.3   331     6.9   822.4    0.00 
 337    3:30   0.00   19.8    79    5.6   331     7.5   822.5    0.00 
 337    3:40   0.00   19.8    79    5.5   324     7.8   822.5    0.00 
 337    3:50   0.00   19.6    79    4.1   325     6.5   822.6    0.00 
 337    4:00   0.00   19.9    80    2.0    34     4.8   822.6    0.00 
 337    4:10   0.00   20.1    79    3.4    74     5.6   822.7    0.00 
 337    4:20   0.00   19.5    78    3.5    42     5.3   822.7    0.00 
 337    4:30   0.00   17.9    80    3.6    34     4.6   822.8    0.00 
 337    4:40   0.00   17.3    81    2.5    12     3.5   822.8    0.00 
 337    4:50   0.00   16.1    83    3.4    74     4.1   822.7    0.00 
 337    5:00   0.00   15.8    86    2.5    77     3.6   822.8    0.00 
 337    5:10   0.00   16.5    84    1.8    57     2.9   822.8    0.00 
 337    5:20   0.00   17.0    80    3.0    13     4.6   822.8    0.00 
 337    5:30   0.00   15.3    80    5.3   332     6.6   822.9    0.00 
 337    5:40   0.00   15.2    82    5.6   330     6.4   823.1    0.00 
 337    5:50   0.00   14.7    82    4.6   341     5.5   823.1    0.00 
 337    6:00   0.00   13.9    83    3.1   354     4.1   823.3    0.00 
 337    6:10   0.00   13.0    83    3.0   359     4.2   823.4    0.00 
 337    6:20   0.00   13.0    85    2.5    24     3.4   823.5    0.00 
 337    6:30   0.00   14.1    88    3.9     6     8.9   823.6    0.00 
 337    6:40   0.00   17.3    86    7.8   332    10.3   823.6    0.00 
 337    6:50   0.00   18.7    84    7.6   330    10.8   823.8    0.00 
 337    7:00   0.01   18.9    84    6.1   332     8.2   823.9    0.00 
 337    7:10   0.02   18.6    83    4.9   358     8.0   824.2    0.00 
 337    7:20   0.04   17.7    84    2.7    42     4.7   824.5    0.00 
 337    7:30   0.04   18.0    85    0.8    46     2.0   824.6    0.00 
 337    7:40   0.05   18.0    86    2.5    63     3.7   824.9    0.00 
 337    7:50   0.06   17.5    85    3.1    87     3.9   824.9    0.00 
 337    8:00   0.16   18.6    83    2.8    98     4.0   824.9    0.00 
 337    8:10   0.21   20.0    78    3.0   116     4.5   824.9    0.00 
 337    8:20   0.24   21.9    74    1.6   110     3.0   825.1    0.00 
 337    8:30   0.24   24.6    69    0.7    98     2.6   825.3    0.00 
 337    8:40   0.07   21.7    72    3.2    88     4.5   825.4    0.00 
 337    8:50   0.06   20.3    76    2.1    94     4.5   825.6    0.00 
 337    9:00   0.05   20.2    76    2.3   136     3.7   825.6    0.00 
 337    9:10   0.11   20.4    77    2.5   160     3.6   825.6    0.00 
 337    9:20   0.16   22.4    75    0.6   188     1.8   825.7    0.00 
 337    9:30   0.13   23.5    71    0.7   225     4.5   825.8    0.00 
 337    9:40   0.20   23.7    69    3.9   346     8.3   825.8    0.00 
 337    9:50   0.16   24.0    66    7.4   328    10.4   825.8    0.00 
 337   10:00   0.17   24.1    66    6.4   330    10.6   825.9    0.00 
 337   10:10   0.22   24.8    63    6.9   332    11.7   825.8    0.00 
 337   10:20   0.27   25.3    62    8.0   343    11.8   825.8    0.00 
 337   10:30   0.37   26.0    59    8.2   345    11.9   825.8    0.00 
 337   10:40   0.48   26.9    58    6.8   333    10.9   825.9    0.00 
 337   10:50   0.28   26.6    57    6.2   318     9.6   825.9    0.00 
 337   11:00   0.32   26.8    56    7.1   327    11.2   825.8    0.00 
 337   11:10   0.32   27.4    55    7.0   316    10.2   825.7    0.00 
 337   11:20   0.34   27.2    55    8.2   325    11.9   825.6    0.00 
 337   11:30   0.45   28.0    54    7.8   316    12.8   825.6    0.00 
 337   11:40   0.57   28.8    53    8.3   307    14.0   825.4    0.00 
 337   11:50   0.47   29.4    50    9.0   313    14.0   825.3    0.00 
 337   12:00   0.47   29.1    50    6.7   302    14.4   825.1    0.00 
 337   12:10   0.36   29.4    48    8.6   310    13.5   825.0    0.00 
 337   12:20   0.31   29.2    47    7.1   358    12.7   824.9    0.00 
 337   12:30   0.24   29.4    46    7.3     1    12.2   824.9    0.00 
 337   12:40   0.28   29.6    46    8.7   360    14.1   824.8    0.00 
 337   12:50   0.49   30.0    46    8.1   332    14.7   824.9    0.00 
 337   13:00   0.46   31.1    44    8.0   354    14.0   824.8    0.00 
 337   13:10   0.36   30.3    44    6.2   357    12.5   824.8    0.00 
 337   13:20   0.51   31.7    42    7.2   331    12.2   824.9    0.00 
 337   13:30   0.46   31.1    42    7.5   358    11.5   824.8    0.00 
 337   13:40   0.49   31.8    41    9.6     8    15.4   824.8    0.00 
 337   13:50   0.28   31.1    41    6.7   351    12.1   824.7    0.00 

Return to Steptoe Valley North graphs page.


Western Regional Climate Center,wrcc@dri.edu